Aeroporto :
LOGIN :

Iscrizione | Disclaimer

   EN    FR    IT 

 










Sommario :    VFR   VFR Marginale   IFR   IFR Intensivo   IFR Molto Intensivo
Visibilità : 
Base nubi : 
>= 8 km
>= 3000ft
5 / 8 km
1000 / 3000 ft
1500m / 5 km
500 / 1000 ft
800 / 1500m
200 / 500 ft
< 800m
< 200 ft
Simboli :   Temporali  Nebbia  Neve Forte  Precipitazioni Forti  Vento > 20 kt
SIGMETs :   Varie  Temporali  Ghiacco  Turbolenza  Onda orograficha  Ceneri Vulcaniche






- Altitudine del aeroporto : 1411 ft
- Codice IATA : GVA


LSGG - Genève Cointrin

ULTIMO METAR :
  • 231920Z 21015KT 9999 SCT030 SCT075 06/01 Q0999 NOSIG

METARs OBSOLETI :
  • 231850Z 21013KT 9999 SCT035 07/01 Q0999 NOSIG
  • 231820Z 22012KT 9999 FEW035 07/01 Q0999 NOSIG
  • 231750Z 27003KT 200V290 9999 FEW030 06/02 Q0999 NOSIG
  • 231720Z 22014KT 200V260 9999 -SHRA FEW030 SCT050 07/01 Q0999 NOSIG
  • 231650Z 22011KT 9999 VCSH FEW030 FEW040TCU SCT050 BKN065 08/M01 Q0998 NOSIG
  • 231620Z 21011KT 9999 VCSH FEW030 SCT050 BKN085 09/M01 Q0998 NOSIG
  • 231550Z 23010KT 9999 FEW030 SCT050 BKN085 09/M01 Q0998 NOSIG
  • 231520Z 23011KT 9999 VCSH FEW030 SCT050 BKN080 09/M01 Q0998 NOSIG
  • 231450Z 23009KT 9999 FEW030 SCT050 BKN080 09/M01 Q0998 NOSIG

TAF TAF LSGG
Valido dal 23 a 18 ore il 25 a 00 ore UTC


231725Z 2318/2424 22012KT 9999 FEW025 BKN060 TX10/2415Z TN03/2406Z
TEMPO 2318/2407 24015G25KT SHRA FEW040TCU
ATIS : +41 22 417 40 81



MetMap, La meteo Aeronautica in un colpo d'occhio ! - Copyright ORBIFLY Dicembre 2007 - Disclaimer

ORBIFLY MET'MAP TEAM :

Programmazione e sviluppo : Alexandra Zaïnal
Concezione : Baudouin d'Aumeries
Supporto tecnico e logistico : Manuel Goepfert
Aiuto : Marc-Olivier Méhu
Aiuto per la traduzione : Arnaldo La Scala




FONTI E CREDITI :

   NOAA